Time;durP1;ratioP1;P1;durP2;ratioP2;P2;SDS_P1;SDS_P2;PMS_P1;PMS_P2;Temp;Humidity;BMP_temperature;BMP_pressure;BME280_temperature;BME280_humidity;BME280_pressure;Samples;Min_cycle;Max_cycle;Signal;HPM_P1;HPM_P2
2023/09/03 00:00:25;;;;;;;2.60;1.42;;;;;;;18.35;100.00;100321.06;4991625;28;20042;-92
2023/09/03 00:02:50;;;;;;;0.98;0.70;;;;;;;18.52;100.00;100344.63;4986170;28;20516;-93
2023/09/03 00:05:16;;;;;;;0.57;0.57;;;;;;;18.47;100.00;100347.31;4954047;28;20042;-92
2023/09/03 00:07:41;;;;;;;1.63;1.52;;;;;;;18.44;100.00;100340.63;4980126;28;20042;-92
2023/09/03 00:10:07;;;;;;;0.85;0.70;;;;;;;18.39;100.00;100330.09;5010059;28;20041;-92
2023/09/03 00:12:33;;;;;;;1.38;1.27;;;;;;;18.38;100.00;100339.75;4995931;28;20454;-93
2023/09/03 00:14:58;;;;;;;1.27;0.73;;;;;;;18.32;100.00;100330.44;4992095;28;20036;-92
2023/09/03 00:17:25;;;;;;;0.95;0.82;;;;;;;18.37;100.00;100340.25;4972587;28;20049;-93
2023/09/03 00:19:51;;;;;;;0.65;0.65;;;;;;;18.27;100.00;100319.13;4984932;28;20042;-93
2023/09/03 00:22:16;;;;;;;0.30;0.30;;;;;;;18.41;100.00;100338.78;5009403;28;20049;-92
2023/09/03 00:24:42;;;;;;;0.20;0.20;;;;;;;18.39;100.00;100330.09;4973509;28;20109;-92
2023/09/03 00:27:08;;;;;;;0.35;0.35;;;;;;;18.50;100.00;100347.13;4981138;28;20053;-92
2023/09/03 00:29:35;;;;;;;0.90;0.80;;;;;;;18.53;100.00;100345.41;4990888;28;20148;-93
2023/09/03 00:32:01;;;;;;;0.98;0.82;;;;;;;18.45;100.00;100325.31;4991894;28;20124;-92
2023/09/03 00:34:26;;;;;;;0.45;0.30;;;;;;;18.56;100.00;100336.78;4970577;28;20858;-92
2023/09/03 00:36:52;;;;;;;0.50;0.50;;;;;;;18.43;100.00;100325.06;4989114;28;20034;-93
2023/09/03 00:39:18;;;;;;;1.05;0.98;;;;;;;18.45;100.00;100322.53;4990512;28;20034;-92
2023/09/03 00:41:45;;;;;;;1.20;0.77;;;;;;;18.25;100.00;100291.53;4960423;28;20038;-92
2023/09/03 00:44:11;;;;;;;0.68;0.63;;;;;;;18.36;100.00;100308.56;4989983;28;20500;-93
2023/09/03 00:46:37;;;;;;;1.08;0.98;;;;;;;18.09;100.00;100269.53;5010581;28;20121;-93
2023/09/03 00:49:02;;;;;;;0.55;0.55;;;;;;;18.26;100.00;100309.94;4987299;28;20048;-91
2023/09/03 00:51:28;;;;;;;0.90;0.50;;;;;;;18.33;100.00;100328.41;4992146;28;20080;-92
2023/09/03 00:53:55;;;;;;;0.35;0.35;;;;;;;18.22;100.00;100319.81;4989654;28;20523;-93
2023/09/03 00:56:21;;;;;;;0.45;0.45;;;;;;;18.26;100.00;100340.03;4987855;28;20050;-92
2023/09/03 00:58:47;;;;;;;0.77;0.77;;;;;;;18.22;100.00;100336.66;5003287;28;20041;-92
2023/09/03 01:03:56;;;;;;;0.47;0.38;;;;;;;18.21;100.00;100340.72;4277596;23;20120;-89
2023/09/03 01:06:22;;;;;;;1.10;0.75;;;;;;;18.03;100.00;100322.00;4976330;28;20482;-89
2023/09/03 01:08:47;;;;;;;0.40;0.40;;;;;;;18.19;100.00;100332.78;4976611;28;20494;-89
2023/09/03 01:11:32;;;;;;;4.40;1.58;;;;;;;18.15;100.00;100335.78;4976252;28;20046;-89
2023/09/03 01:14:20;;;;;;;0.15;0.15;;;;;;;18.11;100.00;100340.03;4992527;28;20053;-89
2023/09/03 01:16:58;;;;;;;0.88;0.88;;;;;;;18.11;100.00;100337.22;4972178;28;20046;-88
2023/09/03 01:19:33;;;;;;;1.27;1.05;;;;;;;18.11;100.00;100337.22;4975138;28;20073;-88
2023/09/03 01:22:28;;;;;;;0.40;0.40;;;;;;;18.09;100.00;100334.88;4990215;28;20078;-89
2023/09/03 01:25:31;;;;;;;0.25;0.25;;;;;;;18.07;100.00;100333.84;4977135;28;20038;-89
2023/09/03 01:28:12;;;;;;;0.52;0.52;;;;;;;18.04;100.00;100337.56;4986295;28;20073;-89
2023/09/03 01:30:38;;;;;;;0.55;0.45;;;;;;;17.94;100.00;100313.66;4988250;28;20044;-89
2023/09/03 01:33:04;;;;;;;1.20;0.55;;;;;;;17.93;100.00;100331.75;4974173;28;20403;-89
2023/09/03 01:35:30;;;;;;;1.00;0.95;;;;;;;17.77;100.00;100299.31;4972978;28;20049;-90
2023/09/03 01:37:59;;;;;;;1.15;1.00;;;;;;;17.84;100.00;100320.59;4980221;28;20056;-90
2023/09/03 01:40:24;;;;;;;1.23;1.13;;;;;;;17.85;100.00;100322.16;4973240;28;20033;-90
2023/09/03 01:42:50;;;;;;;0.35;0.30;;;;;;;17.78;100.00;100325.34;4989826;28;20100;-90
2023/09/03 01:45:16;;;;;;;0.73;0.60;;;;;;;17.85;100.00;100330.56;4977282;28;20040;-89
2023/09/03 01:47:48;;;;;;;0.55;0.45;;;;;;;17.72;100.00;100311.19;4973505;28;20073;-90
2023/09/03 01:50:41;;;;;;;0.37;0.37;;;;;;;17.87;100.00;100316.84;4977766;28;20046;-89
2023/09/03 01:53:19;;;;;;;0.30;0.30;;;;;;;17.80;100.00;100328.41;4996043;28;20059;-90
2023/09/03 01:55:51;;;;;;;0.85;0.73;;;;;;;17.73;100.00;100318.34;4972505;28;20292;-89
2023/09/03 01:58:18;;;;;;;0.30;0.30;;;;;;;17.78;100.00;100330.94;4977354;28;20046;-90
2023/09/03 02:00:45;;;;;;;0.47;0.40;;;;;;;17.76;100.00;100330.63;4973066;28;20068;-89
2023/09/03 02:03:11;;;;;;;1.33;1.08;;;;;;;17.79;100.00;100329.69;4954469;28;20097;-89
2023/09/03 02:05:37;;;;;;;0.63;0.57;;;;;;;17.76;100.00;100316.59;4976348;28;20065;-90
2023/09/03 02:08:03;;;;;;;1.50;1.20;;;;;;;17.82;100.00;100332.31;4973701;28;20046;-89
2023/09/03 02:10:29;;;;;;;0.80;0.63;;;;;;;17.78;100.00;100326.13;4958727;28;20038;-89
2023/09/03 02:12:54;;;;;;;0.43;0.43;;;;;;;17.75;100.00;100323.50;4974862;28;20058;-90
2023/09/03 02:15:20;;;;;;;0.82;0.82;;;;;;;17.64;100.00;100327.59;4958804;28;20044;-90
2023/09/03 02:17:46;;;;;;;1.35;0.88;;;;;;;17.50;100.00;100305.09;4972492;28;20046;-90
2023/09/03 02:20:11;;;;;;;0.65;0.50;;;;;;;17.65;100.00;100336.81;4961456;28;20074;-90
2023/09/03 02:22:37;;;;;;;0.15;0.15;;;;;;;17.63;100.00;100328.84;4975337;28;20121;-90
2023/09/03 02:25:03;;;;;;;0.68;0.68;;;;;;;17.61;100.00;100328.56;4975877;28;20400;-89
2023/09/03 02:27:29;;;;;;;1.17;0.70;;;;;;;17.49;100.00;100309.94;4975926;28;20037;-90
2023/09/03 02:29:55;;;;;;;0.32;0.25;;;;;;;17.47;100.00;100314.47;4958650;28;20065;-90
2023/09/03 02:32:20;;;;;;;0.50;0.50;;;;;;;17.51;100.00;100324.25;4974664;28;20040;-90
2023/09/03 02:34:46;;;;;;;0.45;0.45;;;;;;;17.40;100.00;100315.59;4974560;28;20506;-89
2023/09/03 02:37:15;;;;;;;0.85;0.85;;;;;;;17.43;100.00;100311.81;4974567;28;20509;-90
2023/09/03 02:39:41;;;;;;;0.77;0.77;;;;;;;17.45;100.00;100328.19;4958312;28;20073;-90
2023/09/03 02:42:06;;;;;;;0.82;0.52;;;;;;;17.34;100.00;100320.31;4975353;28;20082;-90
2023/09/03 02:44:32;;;;;;;0.68;0.68;;;;;;;17.21;100.00;100305.75;4959925;28;20038;-91
2023/09/03 02:46:58;;;;;;;0.77;0.77;;;;;;;17.34;100.00;100331.53;4975455;28;20038;-90
2023/09/03 02:49:23;;;;;;;0.30;0.20;;;;;;;17.31;100.00;100321.25;4965729;28;20037;-90
2023/09/03 02:51:50;;;;;;;0.15;0.13;;;;;;;17.28;100.00;100327.81;4957921;28;20041;-90
2023/09/03 02:54:16;;;;;;;0.20;0.20;;;;;;;17.29;100.00;100329.38;4959935;28;20172;-90
2023/09/03 02:56:41;;;;;;;0.52;0.52;;;;;;;17.23;100.00;100320.06;4987262;28;20582;-90
2023/09/03 02:59:07;;;;;;;0.35;0.35;;;;;;;17.11;100.00;100315.44;4974365;28;20430;-91
2023/09/03 03:01:33;;;;;;;1.02;0.93;;;;;;;17.13;100.00;100315.75;4971212;28;20049;-96
2023/09/03 03:03:59;;;;;;;1.50;0.82;;;;;;;17.16;100.00;100320.41;4975928;28;20045;-96
2023/09/03 03:06:25;;;;;;;0.43;0.25;;;;;;;17.17;100.00;100339.56;4977762;28;20111;-96
2023/09/03 03:08:50;;;;;;;0.32;0.20;;;;;;;17.10;100.00;100313.91;4975712;28;20137;-95
2023/09/03 03:11:18;;;;;;;0.47;0.47;;;;;;;17.13;100.00;100312.97;4982334;28;20042;-96
2023/09/03 03:13:55;;;;;;;0.77;0.40;;;;;;;17.11;100.00;100326.66;4954885;28;20061;-96
2023/09/03 03:16:24;;;;;;;0.57;0.35;;;;;;;17.09;100.00;100313.13;4977866;28;20060;-96
2023/09/03 03:18:52;;;;;;;0.68;0.68;;;;;;;17.10;100.00;100311.88;4960813;28;20102;-96
2023/09/03 03:21:22;;;;;;;0.85;0.85;;;;;;;17.20;100.00;100337.84;4959012;28;20098;-96
2023/09/03 03:23:56;;;;;;;0.50;0.45;;;;;;;17.13;100.00;100322.16;4964508;28;20041;-95
2023/09/03 03:26:29;;;;;;;2.95;0.65;;;;;;;17.04;100.00;100318.59;4978680;28;20042;-96
2023/09/03 03:28:55;;;;;;;1.23;0.77;;;;;;;17.05;100.00;100320.16;4995833;28;20042;-96
2023/09/03 03:31:23;;;;;;;0.32;0.32;;;;;;;17.19;100.00;100341.88;4965877;28;20034;-96
2023/09/03 03:33:51;;;;;;;0.20;0.20;;;;;;;17.08;100.00;100330.41;4964545;28;20042;-96
2023/09/03 03:36:20;;;;;;;0.95;0.90;;;;;;;17.06;100.00;100327.31;4983159;28;20099;-96
2023/09/03 03:38:46;;;;;;;2.60;1.13;;;;;;;17.16;100.00;100349.22;4971386;28;20073;-95
2023/09/03 03:41:16;;;;;;;1.45;0.82;;;;;;;17.14;100.00;100350.97;4978744;28;20045;-91
2023/09/03 03:43:45;;;;;;;0.82;0.82;;;;;;;17.10;100.00;100339.91;4981560;28;20041;-95
2023/09/03 03:46:15;;;;;;;0.73;0.50;;;;;;;17.14;100.00;100360.16;4980632;28;20112;-96
2023/09/03 03:48:43;;;;;;;1.27;0.68;;;;;;;16.95;100.00;100333.44;4960027;28;20069;-96
2023/09/03 03:51:08;;;;;;;0.25;0.20;;;;;;;17.12;100.00;100359.06;4978881;28;20061;-96
2023/09/03 03:53:34;;;;;;;3.03;0.60;;;;;;;17.03;100.00;100334.63;4964235;28;20030;-95
2023/09/03 03:56:04;;;;;;;0.50;0.50;;;;;;;17.16;100.00;100351.25;4979851;28;20120;-95
2023/09/03 03:58:38;;;;;;;0.88;0.40;;;;;;;17.18;100.00;100345.94;4970860;28;20038;-96
2023/09/03 04:01:12;;;;;;;0.57;0.57;;;;;;;17.34;100.00;100356.00;4977519;28;20565;-96
2023/09/03 04:03:37;;;;;;;0.73;0.73;;;;;;;17.41;100.00;100364.03;4989755;28;20064;-96
2023/09/03 04:06:03;;;;;;;0.35;0.35;;;;;;;17.14;100.00;100312.50;4988791;28;20116;-96
2023/09/03 04:08:33;;;;;;;0.70;0.70;;;;;;;17.45;100.00;100354.19;4964258;28;20034;-95
2023/09/03 04:11:05;;;;;;;0.55;0.55;;;;;;;17.46;100.00;100350.16;4977423;28;20096;-95
2023/09/03 04:13:31;;;;;;;0.47;0.38;;;;;;;17.49;100.00;100340.78;4981580;28;20080;-95
2023/09/03 04:15:58;;;;;;;1.25;1.15;;;;;;;17.57;100.00;100372.03;4980940;28;20128;-96
2023/09/03 04:18:26;;;;;;;0.40;0.40;;;;;;;17.59;100.00;100363.97;4964307;28;20085;-96
2023/09/03 04:20:58;;;;;;;1.02;0.63;;;;;;;17.50;100.00;100356.38;4975615;28;20492;-95
2023/09/03 04:23:26;;;;;;;0.25;0.25;;;;;;;17.51;100.00;100352.28;4978147;28;20157;-96
2023/09/03 04:25:52;;;;;;;1.48;0.75;;;;;;;17.52;100.00;100344.66;4996837;28;20104;-96
2023/09/03 04:28:19;;;;;;;0.55;0.45;;;;;;;17.66;100.00;100375.59;4980861;28;20042;-96
2023/09/03 04:30:45;;;;;;;1.02;0.75;;;;;;;17.74;100.00;100380.84;4964535;28;20133;-95
2023/09/03 04:33:11;;;;;;;0.68;0.68;;;;;;;17.74;100.00;100375.25;4979119;28;20038;-96
2023/09/03 04:35:38;;;;;;;0.80;0.63;;;;;;;17.80;100.00;100385.31;4980945;28;20125;-96
2023/09/03 04:38:05;;;;;;;1.10;1.00;;;;;;;17.87;100.00;100384.97;4964148;28;20475;-96
2023/09/03 04:40:35;;;;;;;0.57;0.57;;;;;;;17.92;100.00;100386.31;4981219;28;20106;-96
2023/09/03 04:43:02;;;;;;;0.35;0.35;;;;;;;17.97;100.00;100389.25;4981986;28;20081;-96
2023/09/03 04:45:31;;;;;;;0.93;0.90;;;;;;;17.88;100.00;100366.88;4949114;28;20071;-95
2023/09/03 04:47:58;;;;;;;0.38;0.28;;;;;;;18.08;100.00;100383.09;4988190;28;20514;-95
2023/09/03 04:50:25;;;;;;;0.57;0.57;;;;;;;18.10;100.00;100389.00;4976528;28;20065;-95
2023/09/03 04:52:55;;;;;;;1.55;0.77;;;;;;;18.08;100.00;100386.66;4966498;28;20038;-96
2023/09/03 04:55:21;;;;;;;1.90;1.45;;;;;;;18.18;100.00;100387.38;4968072;28;20046;-96
2023/09/03 04:57:49;;;;;;;0.60;0.60;;;;;;;18.17;100.00;100392.22;4981479;28;20061;-96
2023/09/03 05:00:14;;;;;;;1.42;1.17;;;;;;;18.27;100.00;100406.97;4979985;28;20129;-96
2023/09/03 05:02:40;;;;;;;0.40;0.40;;;;;;;18.27;100.00;100400.56;4994181;28;20038;-96
2023/09/03 05:05:06;;;;;;;0.52;0.50;;;;;;;18.28;100.00;100385.28;4976906;28;20066;-95
2023/09/03 05:07:32;;;;;;;0.40;0.40;;;;;;;18.37;100.00;100387.97;4979761;28;20034;-95
2023/09/03 05:09:58;;;;;;;1.10;0.93;;;;;;;18.44;100.00;100393.25;4977593;28;20535;-96
2023/09/03 05:12:25;;;;;;;0.40;0.40;;;;;;;18.41;100.00;100383.72;4979203;28;20080;-96
2023/09/03 05:14:51;;;;;;;0.52;0.43;;;;;;;18.48;100.00;100386.16;4979707;28;20113;-95
2023/09/03 05:17:17;;;;;;;1.15;0.50;;;;;;;18.54;100.00;100375.84;4974972;28;20094;-96
2023/09/03 05:19:44;;;;;;;0.85;0.85;;;;;;;18.57;100.00;100380.47;4960841;28;20518;-95
2023/09/03 05:22:10;;;;;;;0.57;0.45;;;;;;;18.64;100.00;100380.09;4985800;28;20038;-96
2023/09/03 05:24:35;;;;;;;1.15;1.05;;;;;;;18.69;100.00;100378.63;4976292;28;20047;-95
2023/09/03 05:27:01;;;;;;;0.68;0.65;;;;;;;18.79;100.00;100379.31;4995618;28;20116;-96
2023/09/03 05:29:27;;;;;;;1.00;0.80;;;;;;;18.81;100.00;100386.00;4964467;28;20030;-96
2023/09/03 05:31:53;;;;;;;1.13;0.52;;;;;;;18.84;100.00;100381.47;4981735;28;20045;-96
2023/09/03 05:34:18;;;;;;;0.50;0.47;;;;;;;18.87;100.00;100388.91;4956269;28;20041;-96
2023/09/03 05:36:44;;;;;;;0.68;0.68;;;;;;;18.99;100.00;100399.84;4984617;28;20046;-96
2023/09/03 05:39:10;;;;;;;0.98;0.70;;;;;;;18.96;100.00;100386.00;4993098;28;20068;-96
2023/09/03 05:41:37;;;;;;;0.55;0.47;;;;;;;19.09;100.00;100406.91;4965148;28;20034;-96
2023/09/03 05:44:06;;;;;;;1.55;0.85;;;;;;;19.07;100.00;100386.16;4968319;28;20042;-96
2023/09/03 05:46:33;;;;;;;0.65;0.50;;;;;;;19.30;100.00;100404.94;4985343;28;20038;-95
2023/09/03 05:49:00;;;;;;;0.30;0.30;;;;;;;19.37;100.00;100396.09;4978173;28;20041;-95
2023/09/03 05:51:26;;;;;;;0.75;0.73;;;;;;;19.21;100.00;100365.66;4970179;28;20042;-96
2023/09/03 05:53:53;;;;;;;1.15;0.57;;;;;;;19.21;100.00;100371.28;4995926;28;20076;-96
2023/09/03 05:56:21;;;;;;;0.93;0.80;;;;;;;19.33;100.00;100406.75;4986658;28;20054;-96
2023/09/03 05:58:48;;;;;;;3.95;0.55;;;;;;;19.18;100.00;100394.00;4979044;28;20018;-96
2023/09/03 06:01:14;;;;;;;0.55;0.52;;;;;;;19.12;100.00;100385.50;4988647;28;20078;-96
2023/09/03 06:21:51;;;;;;;0.55;0.55;;;;;;;19.54;100.00;100456.22;4991051;28;20125;-94
2023/09/03 06:24:16;;;;;;;12.27;0.82;;;;;;;19.49;100.00;100445.66;4960480;28;20133;-94
2023/09/03 06:26:42;;;;;;;1.27;0.95;;;;;;;19.58;100.00;100444.75;4971927;28;20042;-94
2023/09/03 06:29:09;;;;;;;1.20;0.70;;;;;;;19.65;100.00;100446.41;4960349;28;20046;-95
2023/09/03 06:31:35;;;;;;;0.90;0.85;;;;;;;19.65;100.00;100433.13;4976049;28;20038;-95
2023/09/03 06:34:00;;;;;;;1.08;1.02;;;;;;;19.77;100.00;100454.53;4957845;28;20046;-93
2023/09/03 06:36:26;;;;;;;1.23;1.13;;;;;;;19.79;100.00;100445.56;4942090;28;20085;-95
2023/09/03 06:38:51;;;;;;;0.50;0.50;;;;;;;19.87;100.00;100439.03;4959204;28;20123;-94
2023/09/03 06:41:17;;;;;;;1.20;0.90;;;;;;;20.00;100.00;100455.59;4974081;28;20055;-94
2023/09/03 06:43:43;;;;;;;0.60;0.55;;;;;;;20.02;100.00;100450.22;4959381;28;20033;-94
2023/09/03 06:46:09;;;;;;;1.38;0.82;;;;;;;20.08;100.00;100453.91;4974668;28;20045;-95
2023/09/03 06:48:35;;;;;;;1.52;1.42;;;;;;;20.00;100.00;100444.34;4976795;28;20050;-93
2023/09/03 06:51:01;;;;;;;0.75;0.75;;;;;;;20.12;100.00;100453.69;4963139;28;20608;-94
2023/09/03 06:53:26;;;;;;;1.02;1.02;;;;;;;20.05;100.00;100440.81;4958335;28;20468;-94
2023/09/03 06:55:52;;;;;;;1.20;0.82;;;;;;;20.17;100.00;100462.22;4963849;28;20050;-94
2023/09/03 06:58:18;;;;;;;0.60;0.60;;;;;;;20.26;100.00;100470.50;4963855;28;20045;-89
2023/09/03 07:00:44;;;;;;;0.80;0.80;;;;;;;20.33;100.00;100464.50;4973045;28;20051;-89
2023/09/03 07:03:09;;;;;;;1.38;0.90;;;;;;;20.41;100.00;100465.63;4957158;28;20092;-89
2023/09/03 07:05:35;;;;;;;1.33;0.95;;;;;;;20.53;100.00;100474.19;4958401;28;20046;-89
2023/09/03 07:08:01;;;;;;;0.70;0.70;;;;;;;20.48;100.00;100458.78;4973363;28;20046;-89
2023/09/03 07:10:28;;;;;;;1.00;0.93;;;;;;;20.44;100.00;100461.81;4959372;28;20051;-89
2023/09/03 07:12:55;;;;;;;0.80;0.75;;;;;;;20.47;100.00;100455.19;4960747;28;20026;-90
2023/09/03 07:15:20;;;;;;;0.68;0.65;;;;;;;20.86;100.00;100474.56;4958456;28;20042;-89
2023/09/03 07:17:46;;;;;;;2.67;0.60;;;;;;;20.99;100.00;100488.28;4963005;28;20074;-94
2023/09/03 07:20:12;;;;;;;3.45;1.23;;;;;;;21.02;100.00;100479.59;4965947;28;20042;-94
2023/09/03 07:22:37;;;;;;;0.50;0.50;;;;;;;20.80;100.00;100462.44;4985167;28;20507;-95
2023/09/03 07:25:03;;;;;;;0.95;0.85;;;;;;;20.88;100.00;100469.19;4961754;28;20576;-96
2023/09/03 07:27:30;;;;;;;0.60;0.52;;;;;;;20.98;100.00;100473.41;4967209;28;20043;-89
2023/09/03 07:29:56;;;;;;;0.82;0.82;;;;;;;20.85;100.00;100476.59;4962589;28;20057;-95
2023/09/03 07:32:22;;;;;;;1.27;1.17;;;;;;;20.67;100.00;100462.03;4970146;28;20480;-95
2023/09/03 07:34:50;;;;;;;0.95;0.95;;;;;;;20.58;100.00;100467.84;4982478;28;20053;-96
2023/09/03 07:37:18;;;;;;;0.73;0.70;;;;;;;20.53;100.00;100477.78;4967776;28;20066;-95
2023/09/03 07:39:45;;;;;;;0.45;0.40;;;;;;;20.31;100.00;100469.06;4962839;28;20677;-96
2023/09/03 07:42:11;;;;;;;0.82;0.70;;;;;;;20.42;100.00;100481.25;4968228;28;20043;-94
2023/09/03 07:44:37;;;;;;;1.30;1.23;;;;;;;20.45;100.00;100485.91;4967617;28;20034;-95
2023/09/03 07:47:03;;;;;;;0.90;0.77;;;;;;;20.52;100.00;100512.09;4984881;28;20073;-95
2023/09/03 07:49:29;;;;;;;1.17;1.02;;;;;;;20.24;100.00;100492.78;4968211;28;20051;-96
2023/09/03 07:51:55;;;;;;;1.23;1.13;;;;;;;20.27;100.00;100499.47;4966689;28;20056;-95
2023/09/03 07:54:21;;;;;;;0.90;0.82;;;;;;;20.34;100.00;100530.81;4962264;28;20111;-94
2023/09/03 07:56:47;;;;;;;1.88;0.95;;;;;;;20.16;100.00;100530.31;4948710;28;20050;-95
2023/09/03 07:59:12;;;;;;;1.33;1.23;;;;;;;20.09;100.00;100514.59;4958953;28;20085;-94
2023/09/03 08:01:39;;;;;;;1.48;1.23;;;;;;;20.06;100.00;100535.28;4962984;28;20030;-96
2023/09/03 08:04:05;;;;;;;2.08;1.80;;;;;;;19.93;100.00;100510.28;4960443;28;20038;-93
2023/09/03 08:06:31;;;;;;;0.50;0.35;;;;;;;19.94;100.00;100502.59;4962009;28;20050;-94
2023/09/03 08:08:56;;;;;;;1.17;1.08;;;;;;;20.09;100.00;100503.34;4963221;28;20157;-93
2023/09/03 08:11:22;;;;;;;1.38;1.13;;;;;;;20.29;100.00;100497.75;4960415;28;20058;-96
2023/09/03 08:13:56;;;;;;;1.05;0.77;;;;;;;20.14;100.00;100466.00;4975575;28;20047;-96
2023/09/03 08:16:21;;;;;;;0.80;0.80;;;;;;;20.35;100.00;100473.22;4963033;28;20053;-96
2023/09/03 08:18:47;;;;;;;1.27;1.17;;;;;;;20.57;100.00;100477.56;4977639;28;20038;-96
2023/09/03 08:21:13;;;;;;;1.05;1.00;;;;;;;20.80;100.00;100491.41;4966723;28;20065;-96
2023/09/03 08:23:40;;;;;;;0.82;0.70;;;;;;;20.80;100.00;100485.00;4960446;28;20054;-96
2023/09/03 08:26:07;;;;;;;0.43;0.38;;;;;;;21.30;100.00;100522.97;4962638;28;20050;-95
2023/09/03 08:28:33;;;;;;;0.70;0.65;;;;;;;21.33;100.00;100507.06;4982605;28;20049;-96
2023/09/03 08:30:59;;;;;;;1.65;1.55;;;;;;;21.48;100.00;100499.22;4964598;28;20050;-96
2023/09/03 08:33:25;;;;;;;0.52;0.52;;;;;;;21.95;100.00;100500.63;4963291;28;20037;-96
2023/09/03 08:35:50;;;;;;;1.08;1.08;;;;;;;22.55;100.00;100515.56;4962740;28;20117;-95
2023/09/03 08:38:16;;;;;;;1.15;0.88;;;;;;;22.78;100.00;100511.53;4962910;28;20030;-96
2023/09/03 08:40:43;;;;;;;0.77;0.77;;;;;;;23.22;100.00;100528.59;4963595;28;20047;-96
2023/09/03 08:43:10;;;;;;;0.28;0.22;;;;;;;23.21;100.00;100523.47;4964006;28;20558;-96
2023/09/03 08:46:04;;;;;;;0.50;0.30;;;;;;;23.18;100.00;100496.94;4963071;28;20054;-96
2023/09/03 08:48:30;;;;;;;0.82;0.70;;;;;;;23.43;100.00;100492.34;4969266;28;20042;-96
2023/09/03 08:50:56;;;;;;;0.60;0.60;;;;;;;23.45;100.00;100489.78;4965609;28;20049;-96
2023/09/03 08:53:22;;;;;;;0.47;0.47;;;;;;;23.30;100.00;100488.44;4980124;28;20492;-96
2023/09/03 08:55:48;;;;;;;0.90;0.88;;;;;;;23.25;100.00;100527.56;4980026;28;20041;-96
2023/09/03 08:58:15;;;;;;;1.75;0.75;;;;;;;23.07;100.00;100536.56;4960889;28;20074;-96
2023/09/03 09:00:44;;;;;;;2.15;1.83;;;;;;;23.12;100.00;100524.47;4967666;28;20046;-96
2023/09/03 09:03:13;;;;;;;1.10;1.00;;;;;;;23.11;100.00;100511.59;4967922;28;20639;-96
2023/09/03 09:05:41;;;;;;;0.73;0.65;;;;;;;23.24;100.00;100508.28;4982751;28;20062;-96
2023/09/03 09:08:07;;;;;;;0.70;0.63;;;;;;;23.24;100.00;100525.25;4970245;28;20046;-96
2023/09/03 09:10:37;;;;;;;0.85;0.45;;;;;;;23.16;100.00;100504.41;4962000;28;20062;-96
2023/09/03 09:13:07;;;;;;;0.82;0.82;;;;;;;23.47;100.00;100526.06;4966475;28;20827;-95
2023/09/03 09:15:36;;;;;;;1.40;1.30;;;;;;;23.29;100.00;100513.19;4967218;28;20042;-95
2023/09/03 09:18:07;;;;;;;0.52;0.50;;;;;;;23.13;100.00;100513.94;4963237;28;20050;-95
2023/09/03 09:20:36;;;;;;;0.47;0.47;;;;;;;23.31;100.00;100526.78;4967346;28;20042;-94
2023/09/03 09:23:02;;;;;;;0.82;0.60;;;;;;;23.48;100.00;100538.94;4981468;28;20062;-96
2023/09/03 09:25:27;;;;;;;1.05;0.93;;;;;;;23.37;100.00;100516.25;4959696;28;20049;-96
2023/09/03 09:27:55;;;;;;;0.38;0.38;;;;;;;23.46;100.00;100518.84;4963168;28;20030;-95
2023/09/03 09:30:22;;;;;;;0.77;0.43;;;;;;;23.27;100.00;100512.13;4966898;28;20042;-96
2023/09/03 09:32:48;;;;;;;0.52;0.52;;;;;;;23.39;100.00;100510.84;4974836;28;20038;-96
2023/09/03 09:35:24;;;;;;;0.63;0.35;;;;;;;23.27;100.00;100506.47;4968974;28;20045;-96
2023/09/03 09:37:50;;;;;;;0.80;0.80;;;;;;;23.32;100.00;100508.53;4965167;28;20105;-96
2023/09/03 09:40:26;;;;;;;0.45;0.45;;;;;;;23.44;100.00;100538.41;4966090;28;20042;-96
2023/09/03 09:42:57;;;;;;;0.45;0.45;;;;;;;23.57;100.00;100525.31;4962435;28;20066;-96
2023/09/03 09:45:23;;;;;;;0.40;0.40;;;;;;;23.63;100.00;100556.44;4963355;28;20137;-96
2023/09/03 09:48:09;;;;;;;0.50;0.50;;;;;;;23.43;100.00;100522.72;4965231;28;20043;-96
2023/09/03 09:50:37;;;;;;;0.77;0.77;;;;;;;23.55;100.00;100549.75;4985721;28;20050;-95
2023/09/03 09:53:03;;;;;;;0.70;0.70;;;;;;;23.42;100.00;100518.31;4969245;28;20401;-96
2023/09/03 09:55:32;;;;;;;1.00;0.70;;;;;;;23.38;100.00;100521.41;4968673;28;20050;-95
2023/09/03 09:57:59;;;;;;;0.40;0.40;;;;;;;23.39;100.00;100537.09;4965699;28;20043;-95
2023/09/03 10:00:34;;;;;;;0.45;0.43;;;;;;;23.35;100.00;100564.88;4966120;28;20038;-96
2023/09/03 10:03:00;;;;;;;0.45;0.43;;;;;;;23.29;100.00;100566.97;4981845;28;20046;-96
2023/09/03 10:05:26;;;;;;;0.95;0.90;;;;;;;22.87;100.00;100536.75;4963172;28;20077;-95
2023/09/03 10:07:52;;;;;;;0.22;0.22;;;;;;;22.98;100.00;100562.25;4965457;28;20062;-96
2023/09/03 10:10:18;;;;;;;0.65;0.45;;;;;;;22.98;100.00;100581.28;4986164;28;20031;-96
2023/09/03 10:12:44;;;;;;;0.45;0.45;;;;;;;22.90;100.00;100563.25;4976777;28;20058;-95
2023/09/03 10:15:13;;;;;;;0.77;0.68;;;;;;;22.78;100.00;100557.56;4975951;28;20097;-95
2023/09/03 10:17:41;;;;;;;0.10;0.10;;;;;;;22.91;100.00;100559.13;4960704;28;20050;-95
2023/09/03 10:20:10;;;;;;;0.20;0.20;;;;;;;23.02;100.00;100576.91;4958252;28;20050;-96
2023/09/03 10:22:40;;;;;;;0.35;0.35;;;;;;;23.08;100.00;100566.41;4962074;28;20051;-95
2023/09/03 10:25:13;;;;;;;2.20;0.30;;;;;;;23.01;100.00;100558.38;4967113;28;20428;-96
2023/09/03 10:27:46;;;;;;;0.30;0.30;;;;;;;22.87;100.00;100535.97;4972073;28;20042;-96
2023/09/03 10:30:15;;;;;;;0.57;0.57;;;;;;;22.95;100.00;100526.50;4985804;28;20047;-95
2023/09/03 10:32:41;;;;;;;0.52;0.50;;;;;;;23.15;100.00;100571.56;4968043;28;20054;-96
2023/09/03 10:35:11;;;;;;;0.15;0.15;;;;;;;23.05;100.00;100558.91;4991782;28;20050;-96
2023/09/03 10:37:39;;;;;;;1.08;0.52;;;;;;;23.03;100.00;100567.16;4981003;28;20043;-96
2023/09/03 10:40:20;;;;;;;0.30;0.30;;;;;;;23.10;100.00;100580.78;4963867;28;20508;-96
2023/09/03 10:42:46;;;;;;;0.20;0.20;;;;;;;22.92;100.00;100561.47;4978999;28;20097;-96
2023/09/03 10:45:12;;;;;;;0.65;0.65;;;;;;;23.07;100.00;100576.16;4963770;28;20034;-95
2023/09/03 10:47:57;;;;;;;0.20;0.20;;;;;;;23.25;100.00;100591.91;4960353;28;20049;-96
2023/09/03 10:50:44;;;;;;;0.10;0.10;;;;;;;23.01;100.00;100561.22;4961813;28;20592;-96
2023/09/03 10:53:42;;;;;;;0.30;0.30;;;;;;;23.10;100.00;100582.84;4963902;28;20102;-95
2023/09/03 10:56:19;;;;;;;0.32;0.32;;;;;;;23.00;100.00;100562.53;4961084;28;20416;-96
2023/09/03 10:59:00;;;;;;;0.60;0.47;;;;;;;23.12;100.00;100583.13;4977013;28;20043;-95
2023/09/03 11:01:31;;;;;;;0.20;0.13;;;;;;;23.19;100.00;100579.78;4958315;28;20377;-95
2023/09/03 11:04:01;;;;;;;0.85;0.68;;;;;;;23.20;100.00;100567.19;4981349;28;20043;-96
2023/09/03 11:06:30;;;;;;;0.20;0.20;;;;;;;23.31;100.00;100560.75;4964921;28;20110;-95
2023/09/03 11:08:59;;;;;;;0.63;0.63;;;;;;;23.51;100.00;100594.53;4965499;28;20050;-95
2023/09/03 11:11:30;;;;;;;0.55;0.38;;;;;;;23.56;100.00;100586.06;4980149;28;20042;-96
2023/09/03 11:13:57;;;;;;;0.10;0.10;;;;;;;23.52;100.00;100560.06;4967818;28;20048;-95
2023/09/03 11:16:31;;;;;;;0.55;0.55;;;;;;;23.57;100.00;100578.34;4966495;28;20041;-96
2023/09/03 11:18:58;;;;;;;0.35;0.35;;;;;;;23.53;100.00;100583.47;4977120;28;20117;-96
2023/09/03 11:21:25;;;;;;;0.30;0.30;;;;;;;23.48;100.00;100599.16;4963486;28;20062;-96
2023/09/03 11:24:18;;;;;;;0.43;0.43;;;;;;;23.57;100.00;100593.25;4960492;28;20043;-95
2023/09/03 11:26:44;;;;;;;;;;;;;;;23.70;100.00;100595.56;4970105;28;20058;-95
2023/09/03 11:29:24;;;;;;;2.75;1.05;;;;;;;23.65;100.00;100585.03;4978909;28;19961;-95
2023/09/03 11:31:51;;;;;;;0.43;0.38;;;;;;;23.40;100.00;100560.53;4961316;28;20050;-96
2023/09/03 11:34:19;;;;;;;0.75;0.75;;;;;;;23.22;100.00;100565.38;4961401;28;20045;-96
2023/09/03 11:36:46;;;;;;;0.52;0.52;;;;;;;23.51;100.00;100588.88;4963870;28;20075;-96
2023/09/03 11:39:16;;;;;;;0.20;0.20;;;;;;;23.36;100.00;100593.97;4968032;28;20030;-92
2023/09/03 11:41:43;;;;;;;0.80;0.70;;;;;;;23.35;100.00;100581.88;4986338;28;20077;-93